Time;durP1;ratioP1;P1;durP2;ratioP2;P2;SDS_P1;SDS_P2;PMS_P1;PMS_P2;Temp;Humidity;BMP_temperature;BMP_pressure;BME280_temperature;BME280_humidity;BME280_pressure;Samples;Min_cycle;Max_cycle;Signal;HPM_P1;HPM_P2
2023/12/16 00:00:39;;;;;;;68.32;24.20;;;;;;;;;;5000642;28;20096;-69
2023/12/16 00:03:06;;;;;;;77.13;24.15;;;;;;;;;;5006110;28;20051;-69
2023/12/16 00:05:32;;;;;;;63.75;23.33;;;;;;;;;;4995037;28;20065;-72
2023/12/16 00:07:59;;;;;;;73.22;25.27;;;;;;;;;;5001954;28;20049;-69
2023/12/16 00:10:25;;;;;;;69.85;23.05;;;;;;;;;;5007575;28;20502;-71
2023/12/16 00:12:52;;;;;;;78.43;25.58;;;;;;;;;;5011639;28;20058;-69
2023/12/16 00:15:19;;;;;;;80.38;26.08;;;;;;;;;;5003664;28;20550;-69
2023/12/16 00:17:46;;;;;;;63.92;23.23;;;;;;;;;;4999211;28;20113;-69
2023/12/16 00:20:12;;;;;;;61.58;21.10;;;;;;;;;;4998715;28;20132;-69
2023/12/16 00:22:39;;;;;;;72.13;21.15;;;;;;;;;;5008870;28;20058;-69
2023/12/16 00:25:06;;;;;;;60.58;22.02;;;;;;;;;;4999990;28;20420;-69
2023/12/16 00:27:33;;;;;;;75.07;23.35;;;;;;;;;;4992526;28;20061;-69
2023/12/16 00:29:59;;;;;;;68.43;23.40;;;;;;;;;;5007197;28;20061;-69
2023/12/16 00:32:26;;;;;;;62.63;22.20;;;;;;;;;;5002711;28;20046;-69
2023/12/16 00:34:52;;;;;;;77.82;22.75;;;;;;;;;;4992413;28;20097;-70
2023/12/16 00:37:19;;;;;;;59.47;22.95;;;;;;;;;;5007857;28;20046;-69
2023/12/16 00:39:45;;;;;;;70.95;24.63;;;;;;;;;;5008756;28;20413;-69
2023/12/16 00:42:12;;;;;;;63.20;21.80;;;;;;;;;;5009535;28;20638;-69
2023/12/16 00:44:38;;;;;;;58.00;22.17;;;;;;;;;;5005402;28;20108;-69
2023/12/16 00:47:05;;;;;;;71.28;23.33;;;;;;;;;;5000707;28;20057;-69
2023/12/16 00:49:31;;;;;;;69.40;22.63;;;;;;;;;;5000255;28;20046;-69
2023/12/16 00:51:58;;;;;;;68.88;23.02;;;;;;;;;;5009851;28;20049;-70
2023/12/16 00:54:26;;;;;;;67.13;23.35;;;;;;;;;;5003876;28;20148;-69
2023/12/16 00:56:53;;;;;;;70.00;21.92;;;;;;;;;;5007187;28;20049;-69
2023/12/16 00:59:21;;;;;;;63.50;20.83;;;;;;;;;;5010588;28;20057;-69
2023/12/16 01:01:47;;;;;;;63.03;22.77;;;;;;;;;;5001209;28;20111;-69
2023/12/16 01:04:14;;;;;;;55.63;21.05;;;;;;;;;;5001295;28;20057;-69
2023/12/16 01:06:40;;;;;;;61.70;22.13;;;;;;;;;;5003682;28;20060;-69
2023/12/16 01:09:07;;;;;;;61.58;20.83;;;;;;;;;;5008553;28;20050;-69
2023/12/16 01:11:34;;;;;;;70.38;21.27;;;;;;;;;;5009100;28;20046;-69
2023/12/16 01:14:00;;;;;;;85.00;22.17;;;;;;;;;;4997946;28;20663;-69
2023/12/16 01:16:27;;;;;;;56.65;20.17;;;;;;;;;;5000736;28;20075;-69
2023/12/16 01:18:54;;;;;;;60.28;20.38;;;;;;;;;;4996302;28;20644;-69
2023/12/16 01:21:21;;;;;;;55.38;21.08;;;;;;;;;;5002540;28;20145;-69
2023/12/16 01:23:47;;;;;;;56.13;19.55;;;;;;;;;;5009566;28;20046;-69
2023/12/16 01:26:13;;;;;;;79.22;19.83;;;;;;;;;;4996103;28;20093;-69
2023/12/16 01:28:40;;;;;;;55.97;18.05;;;;;;;;;;5000194;28;20092;-70
2023/12/16 01:31:08;;;;;;;75.63;21.63;;;;;;;;;;5009006;28;20140;-69
2023/12/16 01:33:34;;;;;;;64.85;19.73;;;;;;;;;;5005756;28;20085;-69
2023/12/16 01:36:01;;;;;;;67.35;20.65;;;;;;;;;;5001851;28;20053;-70
2023/12/16 01:38:27;;;;;;;52.40;17.58;;;;;;;;;;5005180;28;20042;-69
2023/12/16 01:40:54;;;;;;;63.22;18.70;;;;;;;;;;4993270;28;20105;-69
2023/12/16 01:43:20;;;;;;;63.25;19.83;;;;;;;;;;5004835;28;20496;-69
2023/12/16 01:45:48;;;;;;;68.13;22.58;;;;;;;;;;5003268;28;20058;-69
2023/12/16 01:48:14;;;;;;;54.83;19.33;;;;;;;;;;5004914;28;20051;-69
2023/12/16 01:50:41;;;;;;;56.60;20.50;;;;;;;;;;4998003;28;20128;-69
2023/12/16 01:53:07;;;;;;;69.88;20.20;;;;;;;;;;5007961;28;20083;-69
2023/12/16 01:55:34;;;;;;;58.40;19.52;;;;;;;;;;5007000;28;20050;-69
2023/12/16 01:58:02;;;;;;;65.60;21.20;;;;;;;;;;5004220;28;20046;-69
2023/12/16 02:00:29;;;;;;;57.65;21.25;;;;;;;;;;4993147;28;20041;-69
2023/12/16 02:02:55;;;;;;;63.58;22.75;;;;;;;;;;5006510;28;20046;-69
2023/12/16 02:05:22;;;;;;;62.75;22.55;;;;;;;;;;5007614;28;20049;-69
2023/12/16 02:07:48;;;;;;;58.30;21.92;;;;;;;;;;5008231;28;20042;-69
2023/12/16 02:10:14;;;;;;;64.55;21.50;;;;;;;;;;5008294;28;20057;-69
2023/12/16 02:12:43;;;;;;;73.63;23.13;;;;;;;;;;5005205;28;20053;-69
2023/12/16 02:15:09;;;;;;;68.78;23.92;;;;;;;;;;5008366;28;20111;-69
2023/12/16 02:17:36;;;;;;;57.75;22.20;;;;;;;;;;5004645;28;20128;-69
2023/12/16 02:20:03;;;;;;;73.78;23.50;;;;;;;;;;5008130;28;20079;-69
2023/12/16 02:22:29;;;;;;;60.33;20.55;;;;;;;;;;4998394;28;20134;-69
2023/12/16 02:24:56;;;;;;;76.10;22.90;;;;;;;;;;5014262;28;20598;-69
2023/12/16 02:27:23;;;;;;;74.05;24.92;;;;;;;;;;5002444;28;20051;-70
2023/12/16 02:29:49;;;;;;;68.30;24.15;;;;;;;;;;4997646;28;20129;-69
2023/12/16 02:32:16;;;;;;;62.28;23.30;;;;;;;;;;5005599;28;20082;-69
2023/12/16 02:34:43;;;;;;;66.00;25.25;;;;;;;;;;5007362;28;20058;-69
2023/12/16 02:37:09;;;;;;;58.42;22.23;;;;;;;;;;4998531;28;20049;-69
2023/12/16 02:39:36;;;;;;;64.57;24.75;;;;;;;;;;5007730;28;20042;-70
2023/12/16 02:42:02;;;;;;;56.78;22.38;;;;;;;;;;5004432;28;20038;-69
2023/12/16 02:44:29;;;;;;;67.57;24.77;;;;;;;;;;5005470;28;20161;-67
2023/12/16 02:46:55;;;;;;;72.07;24.33;;;;;;;;;;5002877;28;20062;-69
2023/12/16 02:49:22;;;;;;;69.75;23.15;;;;;;;;;;5003051;28;20054;-68
2023/12/16 02:51:48;;;;;;;68.55;23.48;;;;;;;;;;4998897;28;20076;-71
2023/12/16 02:54:15;;;;;;;73.25;23.55;;;;;;;;;;4997071;28;20054;-71
2023/12/16 02:56:41;;;;;;;69.10;23.55;;;;;;;;;;5008077;28;20046;-71
2023/12/16 02:59:07;;;;;;;59.95;23.70;;;;;;;;;;5005894;28;20054;-71
2023/12/16 03:01:34;;;;;;;66.93;27.40;;;;;;;;;;5007978;28;20124;-71
2023/12/16 03:04:00;;;;;;;68.82;25.35;;;;;;;;;;5005208;28;20057;-71
2023/12/16 03:06:27;;;;;;;73.93;26.42;;;;;;;;;;5002706;28;20054;-71
2023/12/16 03:08:53;;;;;;;64.78;24.70;;;;;;;;;;4994494;28;20085;-71
2023/12/16 03:11:20;;;;;;;67.22;25.27;;;;;;;;;;5002333;28;20058;-73
2023/12/16 03:13:46;;;;;;;68.00;27.33;;;;;;;;;;4993568;28;20069;-71
2023/12/16 03:16:13;;;;;;;73.30;26.13;;;;;;;;;;4993552;28;20145;-71
2023/12/16 03:18:39;;;;;;;56.97;23.08;;;;;;;;;;5001346;28;20099;-71
2023/12/16 03:21:07;;;;;;;64.13;23.23;;;;;;;;;;4995748;28;20050;-71
2023/12/16 03:23:33;;;;;;;68.30;22.77;;;;;;;;;;5007238;28;20046;-71
2023/12/16 03:26:00;;;;;;;67.82;24.50;;;;;;;;;;5007390;28;20617;-73
2023/12/16 03:28:26;;;;;;;64.25;24.27;;;;;;;;;;5005806;28;20054;-71
2023/12/16 03:30:52;;;;;;;76.32;27.92;;;;;;;;;;5006437;28;20054;-71
2023/12/16 03:33:19;;;;;;;67.22;27.20;;;;;;;;;;5005621;28;20060;-70
2023/12/16 03:35:45;;;;;;;61.35;25.63;;;;;;;;;;4995636;28;20514;-71
2023/12/16 03:38:12;;;;;;;96.63;29.55;;;;;;;;;;5001724;28;20058;-71
2023/12/16 03:40:38;;;;;;;71.35;25.55;;;;;;;;;;5007588;28;20053;-71
2023/12/16 03:43:05;;;;;;;70.40;24.13;;;;;;;;;;5003770;28;20050;-71
2023/12/16 03:45:31;;;;;;;81.07;26.50;;;;;;;;;;5002895;28;20434;-71
2023/12/16 03:47:58;;;;;;;54.42;23.70;;;;;;;;;;5003799;28;20050;-71
2023/12/16 03:50:24;;;;;;;61.33;23.63;;;;;;;;;;5006416;28;20074;-71
2023/12/16 03:52:51;;;;;;;72.40;27.02;;;;;;;;;;5000126;28;20077;-71
2023/12/16 03:55:18;;;;;;;60.80;23.58;;;;;;;;;;5005419;28;20092;-70
2023/12/16 03:57:44;;;;;;;62.17;25.92;;;;;;;;;;5001125;28;20050;-71
2023/12/16 04:00:11;;;;;;;59.47;21.83;;;;;;;;;;5006270;28;20061;-71
2023/12/16 04:02:37;;;;;;;62.38;24.17;;;;;;;;;;5009805;28;20065;-70
2023/12/16 04:05:04;;;;;;;74.97;23.83;;;;;;;;;;5004732;28;20487;-71
2023/12/16 04:07:30;;;;;;;63.15;25.30;;;;;;;;;;4995689;28;20567;-71
2023/12/16 04:09:58;;;;;;;62.95;22.35;;;;;;;;;;5005019;28;20121;-70
2023/12/16 04:12:24;;;;;;;67.35;24.40;;;;;;;;;;5006812;28;20385;-70
2023/12/16 04:14:51;;;;;;;74.07;24.23;;;;;;;;;;5006592;28;20573;-71
2023/12/16 04:17:17;;;;;;;67.72;21.67;;;;;;;;;;5003846;28;20050;-71
2023/12/16 04:19:51;;;;;;;50.17;19.60;;;;;;;;;;4998660;28;20553;-70
2023/12/16 04:22:17;;;;;;;64.57;22.10;;;;;;;;;;5002532;28;20065;-70
2023/12/16 04:24:44;;;;;;;46.80;21.10;;;;;;;;;;5006345;28;20046;-70
2023/12/16 04:27:11;;;;;;;74.05;22.20;;;;;;;;;;4997421;28;20053;-71
2023/12/16 04:29:38;;;;;;;67.13;21.17;;;;;;;;;;5007016;28;20061;-71
2023/12/16 04:32:04;;;;;;;62.28;21.85;;;;;;;;;;4996991;28;20133;-70
2023/12/16 04:34:31;;;;;;;56.95;20.75;;;;;;;;;;5009997;28;20383;-71
2023/12/16 04:36:57;;;;;;;54.97;19.50;;;;;;;;;;5011292;28;20041;-70
2023/12/16 04:39:23;;;;;;;49.47;18.63;;;;;;;;;;4999292;28;20041;-73
2023/12/16 04:41:50;;;;;;;52.63;19.85;;;;;;;;;;4996184;28;20076;-71
2023/12/16 04:44:16;;;;;;;58.42;20.17;;;;;;;;;;5002089;28;20076;-70
2023/12/16 04:46:43;;;;;;;50.97;17.60;;;;;;;;;;5004077;28;20085;-71
2023/12/16 04:49:09;;;;;;;55.42;18.92;;;;;;;;;;4998194;28;20479;-71
2023/12/16 04:51:36;;;;;;;59.78;20.52;;;;;;;;;;4995525;28;20050;-70
2023/12/16 04:54:02;;;;;;;52.22;18.88;;;;;;;;;;5007933;28;20175;-70
2023/12/16 04:56:29;;;;;;;48.53;20.33;;;;;;;;;;5001165;28;20061;-70
2023/12/16 04:58:55;;;;;;;56.22;18.35;;;;;;;;;;5001817;28;20045;-70
2023/12/16 05:01:22;;;;;;;58.00;18.38;;;;;;;;;;5004904;28;20535;-71
2023/12/16 05:03:48;;;;;;;40.83;17.33;;;;;;;;;;4993502;28;20158;-70
2023/12/16 05:06:15;;;;;;;46.85;17.00;;;;;;;;;;5008491;28;20081;-70
2023/12/16 05:08:41;;;;;;;58.13;18.77;;;;;;;;;;5008744;28;20065;-70
2023/12/16 05:11:08;;;;;;;52.55;17.88;;;;;;;;;;5009867;28;20058;-71
2023/12/16 05:13:34;;;;;;;41.30;17.88;;;;;;;;;;4999640;28;20053;-70
2023/12/16 05:16:00;;;;;;;48.00;16.10;;;;;;;;;;5005105;28;20132;-70
2023/12/16 05:18:27;;;;;;;48.05;16.75;;;;;;;;;;4999296;28;20482;-71
2023/12/16 05:20:53;;;;;;;45.03;17.60;;;;;;;;;;5001149;28;20108;-70
2023/12/16 05:23:20;;;;;;;51.65;16.00;;;;;;;;;;5006922;28;20053;-71
2023/12/16 05:25:46;;;;;;;43.90;16.95;;;;;;;;;;5007412;28;20104;-71
2023/12/16 05:28:13;;;;;;;42.72;14.90;;;;;;;;;;5002606;28;20050;-70
2023/12/16 05:30:39;;;;;;;42.53;15.50;;;;;;;;;;5001186;28;20352;-71
2023/12/16 05:33:06;;;;;;;44.90;16.50;;;;;;;;;;5009288;28;20054;-70
2023/12/16 05:35:32;;;;;;;42.65;14.55;;;;;;;;;;5005040;28;20076;-70
2023/12/16 05:37:59;;;;;;;49.05;14.73;;;;;;;;;;5000118;28;20050;-71
2023/12/16 05:40:26;;;;;;;44.95;16.02;;;;;;;;;;5006436;28;20119;-71
2023/12/16 05:42:52;;;;;;;47.55;15.98;;;;;;;;;;5001964;28;20446;-70
2023/12/16 05:45:18;;;;;;;43.00;15.60;;;;;;;;;;5002400;28;20057;-71
2023/12/16 05:47:45;;;;;;;37.55;14.15;;;;;;;;;;5004604;28;20047;-71
2023/12/16 05:50:11;;;;;;;38.50;12.95;;;;;;;;;;5005048;28;20089;-70
2023/12/16 05:52:38;;;;;;;35.13;14.05;;;;;;;;;;5002234;28;20046;-70
2023/12/16 05:55:05;;;;;;;35.65;15.35;;;;;;;;;;5005566;28;20478;-71
2023/12/16 05:57:31;;;;;;;35.03;15.38;;;;;;;;;;4996955;28;20042;-72
2023/12/16 05:59:57;;;;;;;45.08;15.63;;;;;;;;;;5008473;28;20495;-70
2023/12/16 06:02:25;;;;;;;41.60;14.13;;;;;;;;;;5009187;28;20053;-70
2023/12/16 06:04:51;;;;;;;41.03;14.77;;;;;;;;;;4997784;28;20064;-71
2023/12/16 06:07:19;;;;;;;44.53;13.68;;;;;;;;;;5008065;28;20136;-70
2023/12/16 06:09:46;;;;;;;37.05;12.38;;;;;;;;;;5008211;28;20053;-70
2023/12/16 06:12:12;;;;;;;46.65;14.45;;;;;;;;;;4993741;28;20140;-71
2023/12/16 06:14:39;;;;;;;44.28;15.73;;;;;;;;;;4997897;28;20053;-71
2023/12/16 06:17:05;;;;;;;43.50;12.40;;;;;;;;;;5007097;28;20951;-71
2023/12/16 06:19:32;;;;;;;38.20;12.23;;;;;;;;;;5008362;28;20100;-70
2023/12/16 06:21:58;;;;;;;35.25;13.25;;;;;;;;;;5008133;28;20061;-70
2023/12/16 06:24:25;;;;;;;41.97;13.75;;;;;;;;;;4996534;28;20043;-71
2023/12/16 06:26:53;;;;;;;37.30;13.10;;;;;;;;;;5006722;28;20085;-71
2023/12/16 06:29:19;;;;;;;53.70;15.35;;;;;;;;;;5008076;28;20086;-71
2023/12/16 06:31:46;;;;;;;41.55;11.98;;;;;;;;;;5007775;28;20100;-70
2023/12/16 06:34:12;;;;;;;42.40;14.00;;;;;;;;;;5008345;28;20509;-71
2023/12/16 06:36:39;;;;;;;37.20;12.93;;;;;;;;;;5007768;28;20383;-70
2023/12/16 06:39:05;;;;;;;31.50;12.38;;;;;;;;;;5005064;28;20182;-70
2023/12/16 06:41:31;;;;;;;33.58;11.23;;;;;;;;;;5003151;28;20054;-70
2023/12/16 06:43:58;;;;;;;36.75;11.32;;;;;;;;;;4999662;28;20054;-71
2023/12/16 06:46:24;;;;;;;33.33;11.88;;;;;;;;;;4994258;28;20075;-70
2023/12/16 06:48:51;;;;;;;33.50;10.85;;;;;;;;;;5001265;28;20145;-70
2023/12/16 06:51:18;;;;;;;28.77;12.00;;;;;;;;;;4993233;28;20058;-70
2023/12/16 06:53:44;;;;;;;36.40;12.05;;;;;;;;;;5007342;28;20137;-70
2023/12/16 06:56:10;;;;;;;28.27;11.88;;;;;;;;;;5007412;28;20490;-70
2023/12/16 06:58:38;;;;;;;26.17;9.98;;;;;;;;;;4994741;28;20045;-70
2023/12/16 07:01:04;;;;;;;28.13;12.52;;;;;;;;;;5007697;28;20060;-71
2023/12/16 07:03:31;;;;;;;39.83;12.43;;;;;;;;;;5004964;28;20057;-70
2023/12/16 07:05:57;;;;;;;32.28;10.40;;;;;;;;;;4995159;28;20045;-71
2023/12/16 07:08:24;;;;;;;36.28;12.30;;;;;;;;;;5007241;28;20053;-71
2023/12/16 07:10:50;;;;;;;32.95;11.02;;;;;;;;;;5007046;28;20049;-71
2023/12/16 07:13:17;;;;;;;27.42;10.75;;;;;;;;;;5005840;28;20105;-70
2023/12/16 07:15:45;;;;;;;32.42;10.48;;;;;;;;;;5004903;28;20471;-70
2023/12/16 07:18:12;;;;;;;25.05;9.50;;;;;;;;;;5007137;28;20556;-70
2023/12/16 07:20:38;;;;;;;23.42;9.45;;;;;;;;;;5007262;28;20056;-71
2023/12/16 07:23:05;;;;;;;30.85;10.43;;;;;;;;;;5007762;28;20100;-71
2023/12/16 07:25:31;;;;;;;23.42;10.13;;;;;;;;;;5002802;28;20125;-70
2023/12/16 07:27:58;;;;;;;20.98;9.65;;;;;;;;;;5003202;28;20077;-70
2023/12/16 07:30:24;;;;;;;21.33;7.47;;;;;;;;;;5003185;28;20066;-71
2023/12/16 07:32:50;;;;;;;20.50;8.45;;;;;;;;;;5007099;28;20133;-70
2023/12/16 07:35:17;;;;;;;23.25;9.05;;;;;;;;;;5006985;28;20057;-70
2023/12/16 07:37:43;;;;;;;26.52;8.60;;;;;;;;;;4994483;28;20407;-71
2023/12/16 07:40:10;;;;;;;25.83;8.13;;;;;;;;;;5007178;28;20045;-70
2023/12/16 07:42:37;;;;;;;29.05;9.30;;;;;;;;;;5006992;28;20411;-71
2023/12/16 07:45:06;;;;;;;25.55;8.40;;;;;;;;;;4991586;28;20080;-70
2023/12/16 07:47:33;;;;;;;26.80;9.73;;;;;;;;;;4997228;28;20053;-71
2023/12/16 07:49:59;;;;;;;22.35;8.23;;;;;;;;;;4995812;28;20046;-70
2023/12/16 07:52:27;;;;;;;29.15;8.10;;;;;;;;;;4998205;28;20129;-70
2023/12/16 07:54:53;;;;;;;24.98;8.65;;;;;;;;;;4998848;28;20076;-70
2023/12/16 07:57:19;;;;;;;22.30;8.23;;;;;;;;;;5010564;28;20064;-70
2023/12/16 07:59:46;;;;;;;22.48;7.30;;;;;;;;;;5024951;28;20112;-70
2023/12/16 08:02:14;;;;;;;24.25;7.13;;;;;;;;;;5010413;28;20502;-71
2023/12/16 08:04:41;;;;;;;27.02;9.00;;;;;;;;;;5000644;28;20054;-71
2023/12/16 08:07:07;;;;;;;17.40;6.80;;;;;;;;;;5007508;28;20506;-70
2023/12/16 08:09:34;;;;;;;22.98;8.55;;;;;;;;;;5006242;28;20057;-70
2023/12/16 08:12:00;;;;;;;23.83;8.35;;;;;;;;;;5010100;28;20465;-70
2023/12/16 08:14:30;;;;;;;19.90;6.25;;;;;;;;;;5003138;28;20101;-70
2023/12/16 08:16:57;;;;;;;18.02;7.38;;;;;;;;;;5010842;28;20046;-71
2023/12/16 08:19:23;;;;;;;19.65;7.68;;;;;;;;;;4996973;28;20117;-70
2023/12/16 08:21:49;;;;;;;25.08;8.07;;;;;;;;;;5006846;28;20050;-70
2023/12/16 08:24:16;;;;;;;20.77;6.25;;;;;;;;;;5007235;28;20050;-70
2023/12/16 08:26:42;;;;;;;31.98;7.50;;;;;;;;;;5010186;28;20046;-72
2023/12/16 08:29:09;;;;;;;20.85;8.00;;;;;;;;;;4997111;28;20066;-70
2023/12/16 08:31:35;;;;;;;17.90;6.43;;;;;;;;;;5023668;28;20200;-70
2023/12/16 08:34:02;;;;;;;26.38;7.18;;;;;;;;;;5008365;28;20137;-70
2023/12/16 08:36:29;;;;;;;20.48;7.07;;;;;;;;;;5006876;28;20930;-70
2023/12/16 08:38:55;;;;;;;22.52;7.25;;;;;;;;;;5001336;28;20061;-70
2023/12/16 08:41:22;;;;;;;23.55;6.25;;;;;;;;;;5000689;28;20567;-73
2023/12/16 08:43:48;;;;;;;16.35;5.60;;;;;;;;;;5009881;28;20053;-70
2023/12/16 08:46:14;;;;;;;18.15;6.97;;;;;;;;;;5001740;28;20069;-70
2023/12/16 08:48:41;;;;;;;15.98;5.68;;;;;;;;;;5000748;28;20406;-71
2023/12/16 08:51:07;;;;;;;24.88;6.63;;;;;;;;;;5006046;28;20060;-72
2023/12/16 08:53:34;;;;;;;18.35;5.82;;;;;;;;;;5001370;28;20483;-72
2023/12/16 08:56:00;;;;;;;30.67;7.57;;;;;;;;;;5000576;28;20069;-72
2023/12/16 08:58:27;;;;;;;20.17;6.38;;;;;;;;;;5003117;28;20077;-72
2023/12/16 09:00:53;;;;;;;16.50;6.82;;;;;;;;;;5006635;28;20453;-69
2023/12/16 09:03:20;;;;;;;14.63;4.65;;;;;;;;;;5001635;28;20072;-71
2023/12/16 09:05:47;;;;;;;20.67;5.10;;;;;;;;;;4997875;28;20061;-71
2023/12/16 09:08:13;;;;;;;21.92;4.55;;;;;;;;;;5005787;28;20046;-71
2023/12/16 09:10:40;;;;;;;24.35;5.03;;;;;;;;;;5002785;28;20076;-73
2023/12/16 09:13:06;;;;;;;15.38;5.28;;;;;;;;;;4991204;28;20051;-69
2023/12/16 09:15:33;;;;;;;18.58;4.47;;;;;;;;;;4989181;28;20055;-71
2023/12/16 09:17:59;;;;;;;11.85;4.68;;;;;;;;;;4993750;28;20258;-71
2023/12/16 09:20:26;;;;;;;18.92;5.90;;;;;;;;;;4992944;28;20058;-71
2023/12/16 09:22:52;;;;;;;15.93;4.72;;;;;;;;;;4992361;28;20046;-72
2023/12/16 09:25:18;;;;;;;18.33;4.63;;;;;;;;;;4997672;28;20119;-71
2023/12/16 09:27:45;;;;;;;22.33;5.57;;;;;;;;;;4989890;28;20085;-71
2023/12/16 09:30:12;;;;;;;11.70;4.80;;;;;;;;;;4997064;28;20053;-70
2023/12/16 09:32:42;;;;;;;17.92;4.43;;;;;;;;;;5005110;28;20101;-70
2023/12/16 09:35:08;;;;;;;17.65;5.47;;;;;;;;;;5000968;28;20137;-73
2023/12/16 09:37:35;;;;;;;11.98;4.93;;;;;;;;;;4995637;28;20078;-71
2023/12/16 09:40:02;;;;;;;10.18;4.97;;;;;;;;;;4997156;28;20050;-69
2023/12/16 09:42:29;;;;;;;17.85;5.13;;;;;;;;;;4993641;28;20046;-70
2023/12/16 09:44:59;;;;;;;11.23;3.17;;;;;;;;;;4995544;28;20073;-70
2023/12/16 09:47:25;;;;;;;21.73;4.63;;;;;;;;;;4999163;28;20065;-69
2023/12/16 09:49:53;;;;;;;14.10;4.95;;;;;;;;;;4994183;28;20050;-71
2023/12/16 09:52:20;;;;;;;15.52;5.28;;;;;;;;;;4991913;28;20046;-69
2023/12/16 09:54:46;;;;;;;12.35;4.68;;;;;;;;;;4994899;28;20097;-69
2023/12/16 09:57:13;;;;;;;16.98;5.20;;;;;;;;;;5327018;22;20184;-67
2023/12/16 09:59:41;;;;;;;18.60;5.18;;;;;;;;;;4989880;28;20046;-63
2023/12/16 10:40:56;;;;;;;19.45;5.00;;;;;;;;;;4905245;29;20125;-73
2023/12/16 11:42:00;;;;;;;18.67;5.00;;;;;;;;;;4925587;29;20904;-70
2023/12/16 11:49:51;;;;;;;20.65;4.05;;;;;;;;;;4929681;29;20071;-71
2023/12/16 12:42:39;;;;;;;8.10;3.03;;;;;;;;;;4931268;29;20543;-66
2023/12/16 13:09:54;;;;;;;16.77;4.28;;;;;;;;;;4925305;29;20087;-66
2023/12/16 18:24:52;;;;;;;25.52;6.53;;;;;;;;;;4931510;29;20038;-77
2023/12/16 18:28:26;;;;;;;18.33;5.78;;;;;;;;;;4927893;29;20054;-78
2023/12/16 18:31:25;;;;;;;18.92;7.13;;;;;;;;;;4930347;29;20063;-77
2023/12/16 18:34:55;;;;;;;31.80;7.53;;;;;;;;;;4912318;29;20090;-77
2023/12/16 18:38:29;;;;;;;21.10;7.15;;;;;;;;;;4922319;29;20054;-78
2023/12/16 18:42:06;;;;;;;22.63;6.53;;;;;;;;;;4931106;29;20226;-77
2023/12/16 18:45:37;;;;;;;;;;;;;;;;;;4913714;29;20067;-78
2023/12/16 18:49:07;;;;;;;21.30;7.47;;;;;;;;;;4929901;29;19993;-76
2023/12/16 18:56:33;;;;;;;24.30;7.30;;;;;;;;;;4930771;29;20054;-75
2023/12/16 19:00:31;;;;;;;20.63;7.07;;;;;;;;;;4921107;29;20063;-73
2023/12/16 19:04:38;;;;;;;24.95;9.30;;;;;;;;;;4924026;29;20146;-74
2023/12/16 19:08:27;;;;;;;19.23;8.05;;;;;;;;;;4928009;29;20571;-72
2023/12/16 19:12:31;;;;;;;36.70;8.00;;;;;;;;;;4926573;29;20203;-74
2023/12/16 19:15:55;;;;;;;26.80;8.70;;;;;;;;;;4914701;29;20038;-72
2023/12/16 19:19:43;;;;;;;20.48;7.03;;;;;;;;;;4933140;29;20046;-77
2023/12/16 19:23:21;;;;;;;25.27;7.82;;;;;;;;;;4932963;29;20102;-74
2023/12/16 19:27:05;;;;;;;25.60;7.63;;;;;;;;;;4924600;29;20062;-74
2023/12/16 19:30:41;;;;;;;25.58;7.30;;;;;;;;;;4931851;29;20039;-71
2023/12/16 19:34:23;;;;;;;23.38;8.43;;;;;;;;;;4930513;29;20047;-69
2023/12/16 19:41:53;;;;;;;26.08;10.27;;;;;;;;;;4931119;29;20531;-71
2023/12/16 19:45:46;;;;;;;23.30;10.27;;;;;;;;;;4928099;29;21073;-70
2023/12/16 19:48:58;;;;;;;24.33;10.68;;;;;;;;;;4922961;29;20058;-73
2023/12/16 20:07:51;;;;;;;25.35;11.07;;;;;;;;;;4925049;29;20055;-71
2023/12/16 20:14:17;;;;;;;26.50;11.07;;;;;;;;;;4932190;29;20052;-71
2023/12/16 20:17:41;;;;;;;29.73;10.88;;;;;;;;;;4932005;29;20027;-74
2023/12/16 20:21:01;;;;;;;23.02;11.90;;;;;;;;;;4932732;29;20061;-70
2023/12/16 20:24:36;;;;;;;22.23;10.93;;;;;;;;;;4931670;29;20058;-73
2023/12/16 20:28:37;;;;;;;26.52;12.20;;;;;;;;;;4914915;29;20444;-73
2023/12/16 20:31:49;;;;;;;27.15;13.57;;;;;;;;;;4922136;29;20119;-70
2023/12/16 20:35:23;;;;;;;26.95;11.60;;;;;;;;;;4920374;29;20074;-73
2023/12/16 20:43:16;;;;;;;29.30;11.38;;;;;;;;;;4933926;29;20092;-78
2023/12/16 21:02:11;;;;;;;27.15;15.00;;;;;;;;;;4937238;29;20044;-78
2023/12/16 21:05:41;;;;;;;31.95;14.68;;;;;;;;;;4927220;29;20270;-74
2023/12/16 21:08:53;;;;;;;29.88;14.15;;;;;;;;;;4929098;29;20107;-74
2023/12/16 21:11:58;;;;;;;27.90;15.05;;;;;;;;;;4933723;29;20174;-73
2023/12/16 21:15:35;;;;;;;30.80;14.73;;;;;;;;;;4935006;29;20552;-73
2023/12/16 21:25:49;;;;;;;27.77;16.10;;;;;;;;;;4931955;29;20050;-71
2023/12/16 21:29:25;;;;;;;31.15;16.45;;;;;;;;;;4920580;29;20119;-70
2023/12/16 21:36:16;;;;;;;28.60;15.32;;;;;;;;;;4929329;29;20063;-71
2023/12/16 21:43:02;;;;;;;29.85;15.48;;;;;;;;;;4931884;29;20114;-71
2023/12/16 21:46:22;;;;;;;31.02;14.82;;;;;;;;;;4926596;29;20095;-69
2023/12/16 21:53:12;;;;;;;35.67;15.45;;;;;;;;;;4912391;29;20093;-68
2023/12/16 21:56:38;;;;;;;31.95;15.95;;;;;;;;;;4902470;29;20607;-68
2023/12/16 22:00:00;;;;;;;35.35;17.35;;;;;;;;;;4912864;29;20519;-71
2023/12/16 22:07:49;;;;;;;36.67;18.67;;;;;;;;;;4909190;29;20559;-69
